sensor_id;sensor_type;location;lat;lon;timestamp;P1;durP1;ratioP1;P2;durP2;ratioP2
56770;SDS011;42641;59.794;17.616;2023-04-26T00:01:28;10.97;;;4.77;;
56770;SDS011;42641;59.794;17.616;2023-04-26T00:03:55;11.50;;;4.57;;
56770;SDS011;42641;59.794;17.616;2023-04-26T00:06:22;9.63;;;4.30;;
56770;SDS011;42641;59.794;17.616;2023-04-26T00:08:48;10.33;;;4.20;;
56770;SDS011;42641;59.794;17.616;2023-04-26T00:11:15;10.90;;;3.90;;
56770;SDS011;42641;59.794;17.616;2023-04-26T00:13:41;14.73;;;4.80;;
56770;SDS011;42641;59.794;17.616;2023-04-26T00:16:08;8.20;;;4.03;;
56770;SDS011;42641;59.794;17.616;2023-04-26T00:18:34;7.70;;;4.10;;
56770;SDS011;42641;59.794;17.616;2023-04-26T00:21:01;12.10;;;4.33;;
56770;SDS011;42641;59.794;17.616;2023-04-26T00:23:27;14.23;;;4.37;;
56770;SDS011;42641;59.794;17.616;2023-04-26T00:25:55;14.73;;;5.03;;
56770;SDS011;42641;59.794;17.616;2023-04-26T00:28:22;9.27;;;4.53;;
56770;SDS011;42641;59.794;17.616;2023-04-26T00:30:48;14.10;;;4.53;;
56770;SDS011;42641;59.794;17.616;2023-04-26T00:33:15;12.33;;;4.73;;
56770;SDS011;42641;59.794;17.616;2023-04-26T00:35:42;17.17;;;4.47;;
56770;SDS011;42641;59.794;17.616;2023-04-26T00:38:09;16.80;;;4.43;;
56770;SDS011;42641;59.794;17.616;2023-04-26T00:40:35;14.83;;;4.20;;
56770;SDS011;42641;59.794;17.616;2023-04-26T00:43:02;15.60;;;5.13;;
56770;SDS011;42641;59.794;17.616;2023-04-26T00:45:30;18.13;;;4.23;;
56770;SDS011;42641;59.794;17.616;2023-04-26T00:48:00;25.60;;;4.73;;
56770;SDS011;42641;59.794;17.616;2023-04-26T00:50:28;12.37;;;4.83;;
56770;SDS011;42641;59.794;17.616;2023-04-26T00:52:56;33.53;;;4.70;;
56770;SDS011;42641;59.794;17.616;2023-04-26T00:55:23;18.03;;;4.93;;
56770;SDS011;42641;59.794;17.616;2023-04-26T00:57:51;22.40;;;5.03;;
56770;SDS011;42641;59.794;17.616;2023-04-26T01:00:19;30.23;;;5.60;;
56770;SDS011;42641;59.794;17.616;2023-04-26T01:02:46;18.07;;;5.00;;
56770;SDS011;42641;59.794;17.616;2023-04-26T01:05:13;29.07;;;5.37;;
56770;SDS011;42641;59.794;17.616;2023-04-26T01:07:39;26.30;;;5.43;;
56770;SDS011;42641;59.794;17.616;2023-04-26T01:10:06;29.80;;;6.03;;
56770;SDS011;42641;59.794;17.616;2023-04-26T01:12:34;36.53;;;6.63;;
56770;SDS011;42641;59.794;17.616;2023-04-26T01:15:03;53.60;;;6.27;;
56770;SDS011;42641;59.794;17.616;2023-04-26T01:17:31;55.23;;;6.63;;
56770;SDS011;42641;59.794;17.616;2023-04-26T01:19:58;25.80;;;5.70;;
56770;SDS011;42641;59.794;17.616;2023-04-26T01:22:26;17.87;;;6.03;;
56770;SDS011;42641;59.794;17.616;2023-04-26T01:24:53;26.60;;;5.80;;
56770;SDS011;42641;59.794;17.616;2023-04-26T01:27:21;14.87;;;4.90;;
56770;SDS011;42641;59.794;17.616;2023-04-26T01:29:47;37.60;;;6.03;;
56770;SDS011;42641;59.794;17.616;2023-04-26T01:32:14;35.13;;;6.17;;
56770;SDS011;42641;59.794;17.616;2023-04-26T01:34:40;44.57;;;8.37;;
56770;SDS011;42641;59.794;17.616;2023-04-26T01:37:07;53.10;;;6.00;;
56770;SDS011;42641;59.794;17.616;2023-04-26T01:39:34;26.93;;;5.30;;
56770;SDS011;42641;59.794;17.616;2023-04-26T01:42:01;31.67;;;5.67;;
56770;SDS011;42641;59.794;17.616;2023-04-26T01:44:31;29.47;;;5.97;;
56770;SDS011;42641;59.794;17.616;2023-04-26T01:47:00;47.17;;;5.67;;
56770;SDS011;42641;59.794;17.616;2023-04-26T01:49:26;39.90;;;5.60;;
56770;SDS011;42641;59.794;17.616;2023-04-26T01:51:53;72.40;;;6.93;;
56770;SDS011;42641;59.794;17.616;2023-04-26T01:54:22;21.17;;;5.30;;
56770;SDS011;42641;59.794;17.616;2023-04-26T01:56:49;45.47;;;5.90;;
56770;SDS011;42641;59.794;17.616;2023-04-26T01:59:15;41.30;;;5.37;;
56770;SDS011;42641;59.794;17.616;2023-04-26T02:01:42;38.80;;;6.73;;
56770;SDS011;42641;59.794;17.616;2023-04-26T02:04:09;35.73;;;5.43;;
56770;SDS011;42641;59.794;17.616;2023-04-26T02:06:36;37.63;;;5.73;;
56770;SDS011;42641;59.794;17.616;2023-04-26T02:09:03;27.10;;;5.43;;
56770;SDS011;42641;59.794;17.616;2023-04-26T02:11:30;40.57;;;6.10;;
56770;SDS011;42641;59.794;17.616;2023-04-26T02:13:57;33.57;;;5.77;;
56770;SDS011;42641;59.794;17.616;2023-04-26T02:16:23;29.67;;;5.77;;
56770;SDS011;42641;59.794;17.616;2023-04-26T02:18:50;41.20;;;6.30;;
56770;SDS011;42641;59.794;17.616;2023-04-26T02:21:17;27.90;;;6.10;;
56770;SDS011;42641;59.794;17.616;2023-04-26T02:23:44;39.13;;;6.50;;
56770;SDS011;42641;59.794;17.616;2023-04-26T02:26:10;43.80;;;7.87;;
56770;SDS011;42641;59.794;17.616;2023-04-26T02:28:38;53.83;;;6.53;;
56770;SDS011;42641;59.794;17.616;2023-04-26T02:31:05;51.33;;;6.27;;
56770;SDS011;42641;59.794;17.616;2023-04-26T02:33:31;32.67;;;6.33;;
56770;SDS011;42641;59.794;17.616;2023-04-26T02:36:01;43.37;;;5.90;;
56770;SDS011;42641;59.794;17.616;2023-04-26T02:38:29;45.67;;;6.03;;
56770;SDS011;42641;59.794;17.616;2023-04-26T02:40:57;34.33;;;6.47;;
56770;SDS011;42641;59.794;17.616;2023-04-26T02:43:24;51.53;;;7.53;;
56770;SDS011;42641;59.794;17.616;2023-04-26T02:45:52;60.60;;;6.93;;
56770;SDS011;42641;59.794;17.616;2023-04-26T02:48:18;60.27;;;6.57;;
56770;SDS011;42641;59.794;17.616;2023-04-26T02:50:48;41.47;;;5.57;;
56770;SDS011;42641;59.794;17.616;2023-04-26T02:53:15;27.70;;;5.83;;
56770;SDS011;42641;59.794;17.616;2023-04-26T02:55:42;34.90;;;5.07;;
56770;SDS011;42641;59.794;17.616;2023-04-26T02:58:09;52.70;;;5.73;;
56770;SDS011;42641;59.794;17.616;2023-04-26T03:00:35;32.03;;;5.20;;
56770;SDS011;42641;59.794;17.616;2023-04-26T03:03:02;32.50;;;5.90;;
56770;SDS011;42641;59.794;17.616;2023-04-26T03:05:28;61.87;;;5.90;;
56770;SDS011;42641;59.794;17.616;2023-04-26T03:07:55;48.80;;;5.60;;
56770;SDS011;42641;59.794;17.616;2023-04-26T03:10:22;72.37;;;7.10;;
56770;SDS011;42641;59.794;17.616;2023-04-26T03:12:48;72.10;;;8.03;;
56770;SDS011;42641;59.794;17.616;2023-04-26T03:15:14;43.07;;;5.60;;
56770;SDS011;42641;59.794;17.616;2023-04-26T03:17:41;43.20;;;5.70;;
56770;SDS011;42641;59.794;17.616;2023-04-26T03:20:08;17.20;;;4.53;;
56770;SDS011;42641;59.794;17.616;2023-04-26T03:22:36;59.67;;;6.70;;
56770;SDS011;42641;59.794;17.616;2023-04-26T03:25:03;38.37;;;4.93;;
56770;SDS011;42641;59.794;17.616;2023-04-26T03:27:32;93.53;;;9.30;;
56770;SDS011;42641;59.794;17.616;2023-04-26T03:29:59;54.40;;;7.63;;
56770;SDS011;42641;59.794;17.616;2023-04-26T03:32:27;40.53;;;5.97;;
56770;SDS011;42641;59.794;17.616;2023-04-26T03:34:53;88.23;;;7.63;;
56770;SDS011;42641;59.794;17.616;2023-04-26T03:37:20;72.27;;;6.57;;
56770;SDS011;42641;59.794;17.616;2023-04-26T03:39:53;49.47;;;5.77;;
56770;SDS011;42641;59.794;17.616;2023-04-26T03:42:22;43.93;;;7.30;;
56770;SDS011;42641;59.794;17.616;2023-04-26T03:44:48;40.83;;;5.50;;
56770;SDS011;42641;59.794;17.616;2023-04-26T03:47:15;57.07;;;6.23;;
56770;SDS011;42641;59.794;17.616;2023-04-26T03:49:41;28.47;;;4.83;;
56770;SDS011;42641;59.794;17.616;2023-04-26T03:52:08;36.40;;;6.00;;
56770;SDS011;42641;59.794;17.616;2023-04-26T03:54:34;60.67;;;7.27;;
56770;SDS011;42641;59.794;17.616;2023-04-26T03:57:01;33.97;;;5.43;;
56770;SDS011;42641;59.794;17.616;2023-04-26T03:59:28;17.67;;;5.03;;
56770;SDS011;42641;59.794;17.616;2023-04-26T04:01:55;27.53;;;4.90;;
56770;SDS011;42641;59.794;17.616;2023-04-26T04:04:21;22.03;;;5.30;;
56770;SDS011;42641;59.794;17.616;2023-04-26T04:06:48;15.03;;;4.57;;
56770;SDS011;42641;59.794;17.616;2023-04-26T04:09:16;9.33;;;3.83;;
56770;SDS011;42641;59.794;17.616;2023-04-26T04:11:43;12.77;;;4.63;;
56770;SDS011;42641;59.794;17.616;2023-04-26T04:14:10;19.00;;;4.90;;
56770;SDS011;42641;59.794;17.616;2023-04-26T04:16:36;14.40;;;4.50;;
56770;SDS011;42641;59.794;17.616;2023-04-26T04:19:03;16.03;;;4.60;;
56770;SDS011;42641;59.794;17.616;2023-04-26T04:21:30;7.67;;;4.47;;
56770;SDS011;42641;59.794;17.616;2023-04-26T04:23:57;9.03;;;4.37;;
56770;SDS011;42641;59.794;17.616;2023-04-26T04:26:24;5.87;;;4.27;;
56770;SDS011;42641;59.794;17.616;2023-04-26T04:28:53;11.53;;;4.50;;
56770;SDS011;42641;59.794;17.616;2023-04-26T04:31:25;10.63;;;4.07;;
56770;SDS011;42641;59.794;17.616;2023-04-26T04:33:51;12.40;;;4.83;;
56770;SDS011;42641;59.794;17.616;2023-04-26T04:36:18;7.83;;;4.20;;
56770;SDS011;42641;59.794;17.616;2023-04-26T04:38:45;13.47;;;4.10;;
56770;SDS011;42641;59.794;17.616;2023-04-26T04:41:14;5.87;;;4.03;;
56770;SDS011;42641;59.794;17.616;2023-04-26T04:43:41;7.33;;;3.90;;
56770;SDS011;42641;59.794;17.616;2023-04-26T04:46:07;7.67;;;3.97;;
56770;SDS011;42641;59.794;17.616;2023-04-26T04:48:34;9.97;;;4.67;;
56770;SDS011;42641;59.794;17.616;2023-04-26T04:51:03;10.23;;;4.97;;
56770;SDS011;42641;59.794;17.616;2023-04-26T04:53:31;7.73;;;4.17;;
56770;SDS011;42641;59.794;17.616;2023-04-26T04:55:58;6.87;;;4.30;;
56770;SDS011;42641;59.794;17.616;2023-04-26T04:58:24;12.93;;;4.50;;
56770;SDS011;42641;59.794;17.616;2023-04-26T05:00:51;5.50;;;4.00;;
56770;SDS011;42641;59.794;17.616;2023-04-26T05:03:28;8.13;;;4.07;;
56770;SDS011;42641;59.794;17.616;2023-04-26T05:05:54;8.43;;;3.97;;
56770;SDS011;42641;59.794;17.616;2023-04-26T05:08:21;5.13;;;3.70;;
56770;SDS011;42641;59.794;17.616;2023-04-26T05:10:48;6.33;;;4.10;;
56770;SDS011;42641;59.794;17.616;2023-04-26T05:13:15;9.27;;;4.53;;
56770;SDS011;42641;59.794;17.616;2023-04-26T05:15:41;9.70;;;5.30;;
56770;SDS011;42641;59.794;17.616;2023-04-26T05:18:08;15.50;;;5.90;;
56770;SDS011;42641;59.794;17.616;2023-04-26T05:20:35;7.83;;;4.60;;
56770;SDS011;42641;59.794;17.616;2023-04-26T05:23:01;9.77;;;4.20;;
56770;SDS011;42641;59.794;17.616;2023-04-26T05:25:28;6.87;;;4.80;;
56770;SDS011;42641;59.794;17.616;2023-04-26T05:28:02;5.57;;;4.40;;
56770;SDS011;42641;59.794;17.616;2023-04-26T05:30:39;8.37;;;4.70;;
56770;SDS011;42641;59.794;17.616;2023-04-26T05:33:18;6.10;;;4.30;;
56770;SDS011;42641;59.794;17.616;2023-04-26T05:35:54;8.70;;;4.80;;
56770;SDS011;42641;59.794;17.616;2023-04-26T05:38:23;9.30;;;4.33;;
56770;SDS011;42641;59.794;17.616;2023-04-26T05:40:50;5.60;;;4.27;;
56770;SDS011;42641;59.794;17.616;2023-04-26T05:43:16;9.57;;;4.40;;
56770;SDS011;42641;59.794;17.616;2023-04-26T05:45:53;6.93;;;4.30;;
56770;SDS011;42641;59.794;17.616;2023-04-26T05:48:20;6.30;;;3.80;;
56770;SDS011;42641;59.794;17.616;2023-04-26T05:50:48;7.47;;;4.17;;
56770;SDS011;42641;59.794;17.616;2023-04-26T05:53:15;5.53;;;4.00;;
56770;SDS011;42641;59.794;17.616;2023-04-26T05:55:42;5.93;;;3.97;;
56770;SDS011;42641;59.794;17.616;2023-04-26T05:58:09;11.03;;;4.50;;
56770;SDS011;42641;59.794;17.616;2023-04-26T06:00:37;4.87;;;3.93;;
56770;SDS011;42641;59.794;17.616;2023-04-26T06:03:05;5.00;;;3.83;;
56770;SDS011;42641;59.794;17.616;2023-04-26T06:05:32;5.03;;;3.70;;
56770;SDS011;42641;59.794;17.616;2023-04-26T06:07:58;6.53;;;3.90;;
56770;SDS011;42641;59.794;17.616;2023-04-26T06:10:26;6.87;;;4.53;;
56770;SDS011;42641;59.794;17.616;2023-04-26T06:12:53;5.33;;;4.17;;
56770;SDS011;42641;59.794;17.616;2023-04-26T06:15:21;5.90;;;4.03;;
56770;SDS011;42641;59.794;17.616;2023-04-26T06:17:47;8.03;;;4.43;;
56770;SDS011;42641;59.794;17.616;2023-04-26T06:20:15;6.67;;;4.23;;
56770;SDS011;42641;59.794;17.616;2023-04-26T06:22:42;7.17;;;4.97;;
56770;SDS011;42641;59.794;17.616;2023-04-26T06:25:09;6.73;;;4.20;;
56770;SDS011;42641;59.794;17.616;2023-04-26T06:27:37;9.13;;;4.80;;
56770;SDS011;42641;59.794;17.616;2023-04-26T06:30:06;6.73;;;4.60;;
56770;SDS011;42641;59.794;17.616;2023-04-26T06:32:36;8.93;;;5.00;;
56770;SDS011;42641;59.794;17.616;2023-04-26T06:35:04;7.50;;;4.60;;
56770;SDS011;42641;59.794;17.616;2023-04-26T06:37:31;7.73;;;4.63;;
56770;SDS011;42641;59.794;17.616;2023-04-26T06:39:57;5.83;;;3.77;;
56770;SDS011;42641;59.794;17.616;2023-04-26T06:42:25;8.80;;;4.47;;
56770;SDS011;42641;59.794;17.616;2023-04-26T06:45:24;13.87;;;5.20;;
56770;SDS011;42641;59.794;17.616;2023-04-26T06:47:50;8.70;;;4.80;;
56770;SDS011;42641;59.794;17.616;2023-04-26T06:50:18;5.40;;;3.27;;
56770;SDS011;42641;59.794;17.616;2023-04-26T06:52:44;4.03;;;3.33;;
56770;SDS011;42641;59.794;17.616;2023-04-26T06:55:11;5.43;;;3.00;;
56770;SDS011;42641;59.794;17.616;2023-04-26T06:57:37;3.40;;;2.73;;
56770;SDS011;42641;59.794;17.616;2023-04-26T07:00:04;2.97;;;2.50;;
56770;SDS011;42641;59.794;17.616;2023-04-26T07:02:32;3.30;;;2.80;;
56770;SDS011;42641;59.794;17.616;2023-04-26T07:04:59;2.77;;;2.20;;
56770;SDS011;42641;59.794;17.616;2023-04-26T07:07:25;2.93;;;2.43;;
56770;SDS011;42641;59.794;17.616;2023-04-26T07:09:52;2.63;;;2.20;;
56770;SDS011;42641;59.794;17.616;2023-04-26T07:12:18;2.50;;;2.20;;
56770;SDS011;42641;59.794;17.616;2023-04-26T07:14:45;2.83;;;2.20;;
56770;SDS011;42641;59.794;17.616;2023-04-26T07:17:13;2.30;;;2.00;;
56770;SDS011;42641;59.794;17.616;2023-04-26T07:19:39;3.40;;;2.33;;
56770;SDS011;42641;59.794;17.616;2023-04-26T07:22:06;2.07;;;1.87;;
56770;SDS011;42641;59.794;17.616;2023-04-26T07:24:32;3.77;;;1.70;;
56770;SDS011;42641;59.794;17.616;2023-04-26T07:26:58;2.40;;;2.07;;
56770;SDS011;42641;59.794;17.616;2023-04-26T07:29:25;1.73;;;1.63;;
56770;SDS011;42641;59.794;17.616;2023-04-26T07:31:52;1.60;;;1.50;;
56770;SDS011;42641;59.794;17.616;2023-04-26T07:34:18;2.37;;;1.50;;
56770;SDS011;42641;59.794;17.616;2023-04-26T07:36:45;1.57;;;1.40;;
56770;SDS011;42641;59.794;17.616;2023-04-26T07:39:12;1.57;;;1.27;;
56770;SDS011;42641;59.794;17.616;2023-04-26T07:41:40;1.37;;;1.30;;
56770;SDS011;42641;59.794;17.616;2023-04-26T07:44:06;1.33;;;1.20;;
56770;SDS011;42641;59.794;17.616;2023-04-26T07:46:33;1.23;;;1.10;;
56770;SDS011;42641;59.794;17.616;2023-04-26T07:48:59;0.87;;;0.87;;
56770;SDS011;42641;59.794;17.616;2023-04-26T07:51:26;0.90;;;0.90;;
56770;SDS011;42641;59.794;17.616;2023-04-26T07:53:53;1.07;;;1.00;;
56770;SDS011;42641;59.794;17.616;2023-04-26T07:56:22;1.30;;;1.10;;
56770;SDS011;42641;59.794;17.616;2023-04-26T07:58:49;0.90;;;0.90;;
56770;SDS011;42641;59.794;17.616;2023-04-26T08:01:16;1.03;;;1.00;;
56770;SDS011;42641;59.794;17.616;2023-04-26T08:03:43;0.80;;;0.80;;
56770;SDS011;42641;59.794;17.616;2023-04-26T08:06:09;0.90;;;0.90;;
56770;SDS011;42641;59.794;17.616;2023-04-26T08:08:36;1.10;;;0.83;;
56770;SDS011;42641;59.794;17.616;2023-04-26T08:11:09;0.57;;;0.57;;
56770;SDS011;42641;59.794;17.616;2023-04-26T08:13:36;0.40;;;0.40;;
56770;SDS011;42641;59.794;17.616;2023-04-26T08:16:03;0.50;;;0.50;;
56770;SDS011;42641;59.794;17.616;2023-04-26T08:18:29;0.37;;;0.37;;
56770;SDS011;42641;59.794;17.616;2023-04-26T08:20:56;0.40;;;0.40;;
56770;SDS011;42641;59.794;17.616;2023-04-26T08:23:23;0.30;;;0.30;;
56770;SDS011;42641;59.794;17.616;2023-04-26T08:25:49;0.37;;;0.33;;
56770;SDS011;42641;59.794;17.616;2023-04-26T08:28:15;1.00;;;0.33;;
56770;SDS011;42641;59.794;17.616;2023-04-26T08:30:42;0.17;;;0.17;;
56770;SDS011;42641;59.794;17.616;2023-04-26T08:33:08;0.57;;;0.40;;
56770;SDS011;42641;59.794;17.616;2023-04-26T08:35:35;2.27;;;0.40;;
56770;SDS011;42641;59.794;17.616;2023-04-26T08:38:01;0.20;;;0.20;;
56770;SDS011;42641;59.794;17.616;2023-04-26T08:40:28;0.30;;;0.30;;
56770;SDS011;42641;59.794;17.616;2023-04-26T08:42:55;0.53;;;0.40;;
56770;SDS011;42641;59.794;17.616;2023-04-26T08:45:23;0.33;;;0.27;;
56770;SDS011;42641;59.794;17.616;2023-04-26T08:47:55;0.40;;;0.40;;
56770;SDS011;42641;59.794;17.616;2023-04-26T08:50:28;0.20;;;0.20;;
56770;SDS011;42641;59.794;17.616;2023-04-26T08:52:56;0.40;;;0.40;;
56770;SDS011;42641;59.794;17.616;2023-04-26T08:55:22;0.40;;;0.40;;
56770;SDS011;42641;59.794;17.616;2023-04-26T08:57:50;0.40;;;0.40;;
56770;SDS011;42641;59.794;17.616;2023-04-26T09:00:17;0.40;;;0.40;;
56770;SDS011;42641;59.794;17.616;2023-04-26T09:02:45;0.23;;;0.23;;
56770;SDS011;42641;59.794;17.616;2023-04-26T09:05:16;0.60;;;0.60;;
56770;SDS011;42641;59.794;17.616;2023-04-26T09:07:44;0.50;;;0.50;;
56770;SDS011;42641;59.794;17.616;2023-04-26T09:10:12;1.10;;;0.80;;
56770;SDS011;42641;59.794;17.616;2023-04-26T09:12:42;0.50;;;0.50;;
56770;SDS011;42641;59.794;17.616;2023-04-26T09:15:09;0.40;;;0.40;;
56770;SDS011;42641;59.794;17.616;2023-04-26T09:17:36;0.33;;;0.33;;
56770;SDS011;42641;59.794;17.616;2023-04-26T09:22:47;0.30;;;0.30;;
56770;SDS011;42641;59.794;17.616;2023-04-26T09:25:16;0.33;;;0.33;;
56770;SDS011;42641;59.794;17.616;2023-04-26T09:27:44;0.93;;;0.57;;
56770;SDS011;42641;59.794;17.616;2023-04-26T09:30:15;2.50;;;1.80;;
56770;SDS011;42641;59.794;17.616;2023-04-26T09:32:44;0.93;;;0.93;;
56770;SDS011;42641;59.794;17.616;2023-04-26T09:35:22;0.20;;;0.20;;
56770;SDS011;42641;59.794;17.616;2023-04-26T09:38:10;0.30;;;0.30;;
56770;SDS011;42641;59.794;17.616;2023-04-26T09:40:47;0.40;;;0.40;;
56770;SDS011;42641;59.794;17.616;2023-04-26T09:43:18;0.27;;;0.27;;
56770;SDS011;42641;59.794;17.616;2023-04-26T09:45:50;0.80;;;0.80;;
56770;SDS011;42641;59.794;17.616;2023-04-26T09:50:52;0.93;;;0.50;;
56770;SDS011;42641;59.794;17.616;2023-04-26T09:56:17;0.50;;;0.40;;
56770;SDS011;42641;59.794;17.616;2023-04-26T10:01:15;0.40;;;0.40;;
56770;SDS011;42641;59.794;17.616;2023-04-26T10:03:42;0.60;;;0.60;;
56770;SDS011;42641;59.794;17.616;2023-04-26T10:06:13;0.50;;;0.50;;
56770;SDS011;42641;59.794;17.616;2023-04-26T10:08:40;0.50;;;0.50;;
56770;SDS011;42641;59.794;17.616;2023-04-26T10:11:07;0.50;;;0.50;;
56770;SDS011;42641;59.794;17.616;2023-04-26T10:13:37;0.40;;;0.40;;
56770;SDS011;42641;59.794;17.616;2023-04-26T10:16:05;0.47;;;0.47;;
56770;SDS011;42641;59.794;17.616;2023-04-26T10:18:32;0.50;;;0.33;;
56770;SDS011;42641;59.794;17.616;2023-04-26T10:20:59;0.40;;;0.40;;
56770;SDS011;42641;59.794;17.616;2023-04-26T10:23:31;0.30;;;0.30;;
56770;SDS011;42641;59.794;17.616;2023-04-26T10:25:58;0.47;;;0.47;;
56770;SDS011;42641;59.794;17.616;2023-04-26T10:31:09;1.27;;;1.10;;
56770;SDS011;42641;59.794;17.616;2023-04-26T10:33:35;0.93;;;0.67;;
56770;SDS011;42641;59.794;17.616;2023-04-26T10:36:11;0.80;;;0.80;;
56770;SDS011;42641;59.794;17.616;2023-04-26T10:39:18;0.87;;;0.70;;
56770;SDS011;42641;59.794;17.616;2023-04-26T10:41:46;0.50;;;0.50;;
56770;SDS011;42641;59.794;17.616;2023-04-26T10:47:06;0.40;;;0.40;;
56770;SDS011;42641;59.794;17.616;2023-04-26T10:49:45;0.57;;;0.57;;
56770;SDS011;42641;59.794;17.616;2023-04-26T10:52:13;0.40;;;0.40;;
56770;SDS011;42641;59.794;17.616;2023-04-26T10:57:12;0.30;;;0.30;;
56770;SDS011;42641;59.794;17.616;2023-04-26T10:59:39;0.40;;;0.40;;
56770;SDS011;42641;59.794;17.616;2023-04-26T11:02:12;0.30;;;0.30;;
56770;SDS011;42641;59.794;17.616;2023-04-26T11:04:51;0.50;;;0.40;;
56770;SDS011;42641;59.794;17.616;2023-04-26T11:07:34;0.23;;;0.23;;
56770;SDS011;42641;59.794;17.616;2023-04-26T11:10:09;0.53;;;0.53;;
56770;SDS011;42641;59.794;17.616;2023-04-26T11:12:57;0.40;;;0.40;;
56770;SDS011;42641;59.794;17.616;2023-04-26T11:15:30;0.40;;;0.40;;
56770;SDS011;42641;59.794;17.616;2023-04-26T11:17:57;0.90;;;0.37;;
56770;SDS011;42641;59.794;17.616;2023-04-26T11:20:28;0.50;;;0.37;;
56770;SDS011;42641;59.794;17.616;2023-04-26T11:22:56;0.50;;;0.50;;
56770;SDS011;42641;59.794;17.616;2023-04-26T11:25:24;0.47;;;0.47;;
56770;SDS011;42641;59.794;17.616;2023-04-26T11:27:56;0.50;;;0.50;;
56770;SDS011;42641;59.794;17.616;2023-04-26T11:30:27;1.20;;;0.60;;
56770;SDS011;42641;59.794;17.616;2023-04-26T11:32:57;0.60;;;0.60;;
56770;SDS011;42641;59.794;17.616;2023-04-26T11:35:25;0.70;;;0.70;;
56770;SDS011;42641;59.794;17.616;2023-04-26T11:37:56;0.80;;;0.80;;
56770;SDS011;42641;59.794;17.616;2023-04-26T11:40:31;0.53;;;0.53;;
56770;SDS011;42641;59.794;17.616;2023-04-26T11:42:59;1.00;;;0.77;;
56770;SDS011;42641;59.794;17.616;2023-04-26T11:45:32;0.60;;;0.60;;
56770;SDS011;42641;59.794;17.616;2023-04-26T11:48:01;0.57;;;0.50;;
56770;SDS011;42641;59.794;17.616;2023-04-26T11:50:30;0.40;;;0.40;;
56770;SDS011;42641;59.794;17.616;2023-04-26T11:52:58;0.93;;;0.43;;
56770;SDS011;42641;59.794;17.616;2023-04-26T11:55:29;0.50;;;0.50;;
56770;SDS011;42641;59.794;17.616;2023-04-26T11:57:58;0.30;;;0.30;;
56770;SDS011;42641;59.794;17.616;2023-04-26T12:00:25;0.30;;;0.30;;
56770;SDS011;42641;59.794;17.616;2023-04-26T12:02:52;0.33;;;0.33;;
56770;SDS011;42641;59.794;17.616;2023-04-26T12:05:22;0.40;;;0.40;;
56770;SDS011;42641;59.794;17.616;2023-04-26T12:07:56;0.47;;;0.47;;
56770;SDS011;42641;59.794;17.616;2023-04-26T12:10:35;0.50;;;0.50;;
56770;SDS011;42641;59.794;17.616;2023-04-26T12:13:02;0.40;;;0.40;;
56770;SDS011;42641;59.794;17.616;2023-04-26T12:15:29;0.30;;;0.30;;
56770;SDS011;42641;59.794;17.616;2023-04-26T12:18:07;0.30;;;0.30;;
56770;SDS011;42641;59.794;17.616;2023-04-26T12:20:35;0.30;;;0.30;;
56770;SDS011;42641;59.794;17.616;2023-04-26T12:23:07;0.57;;;0.57;;
56770;SDS011;42641;59.794;17.616;2023-04-26T12:25:35;0.70;;;0.70;;
56770;SDS011;42641;59.794;17.616;2023-04-26T12:28:04;0.60;;;0.60;;
56770;SDS011;42641;59.794;17.616;2023-04-26T12:30:37;0.70;;;0.70;;
56770;SDS011;42641;59.794;17.616;2023-04-26T12:33:05;0.60;;;0.60;;
56770;SDS011;42641;59.794;17.616;2023-04-26T12:35:34;0.60;;;0.60;;
56770;SDS011;42641;59.794;17.616;2023-04-26T12:38:01;0.50;;;0.50;;
56770;SDS011;42641;59.794;17.616;2023-04-26T12:40:27;0.87;;;0.70;;
56770;SDS011;42641;59.794;17.616;2023-04-26T12:42:54;0.70;;;0.70;;
56770;SDS011;42641;59.794;17.616;2023-04-26T12:45:22;0.70;;;0.70;;
56770;SDS011;42641;59.794;17.616;2023-04-26T12:47:49;0.50;;;0.50;;
56770;SDS011;42641;59.794;17.616;2023-04-26T12:50:16;0.80;;;0.63;;
56770;SDS011;42641;59.794;17.616;2023-04-26T12:52:42;0.67;;;0.50;;
56770;SDS011;42641;59.794;17.616;2023-04-26T12:55:10;0.67;;;0.67;;
56770;SDS011;42641;59.794;17.616;2023-04-26T12:57:39;0.70;;;0.70;;
56770;SDS011;42641;59.794;17.616;2023-04-26T13:00:07;1.00;;;0.60;;
56770;SDS011;42641;59.794;17.616;2023-04-26T13:02:36;0.50;;;0.50;;
56770;SDS011;42641;59.794;17.616;2023-04-26T13:05:03;0.57;;;0.57;;
56770;SDS011;42641;59.794;17.616;2023-04-26T13:07:38;0.50;;;0.50;;
56770;SDS011;42641;59.794;17.616;2023-04-26T13:10:07;0.60;;;0.60;;
56770;SDS011;42641;59.794;17.616;2023-04-26T13:12:36;0.60;;;0.60;;
56770;SDS011;42641;59.794;17.616;2023-04-26T13:15:04;0.55;;;0.55;;
56770;SDS011;42641;59.794;17.616;2023-04-26T13:17:33;0.30;;;0.30;;
56770;SDS011;42641;59.794;17.616;2023-04-26T13:20:02;0.57;;;0.57;;
56770;SDS011;42641;59.794;17.616;2023-04-26T13:22:30;0.55;;;0.50;;
56770;SDS011;42641;59.794;17.616;2023-04-26T13:24:57;0.57;;;0.57;;
56770;SDS011;42641;59.794;17.616;2023-04-26T13:27:24;0.57;;;0.50;;
56770;SDS011;42641;59.794;17.616;2023-04-26T13:29:50;0.40;;;0.40;;
56770;SDS011;42641;59.794;17.616;2023-04-26T13:32:17;0.93;;;0.52;;
56770;SDS011;42641;59.794;17.616;2023-04-26T13:34:44;0.57;;;0.50;;
56770;SDS011;42641;59.794;17.616;2023-04-26T13:37:10;0.43;;;0.43;;
56770;SDS011;42641;59.794;17.616;2023-04-26T13:39:37;0.60;;;0.50;;
56770;SDS011;42641;59.794;17.616;2023-04-26T13:42:03;0.40;;;0.40;;
56770;SDS011;42641;59.794;17.616;2023-04-26T13:44:30;0.93;;;0.63;;
56770;SDS011;42641;59.794;17.616;2023-04-26T13:46:56;1.98;;;0.88;;
56770;SDS011;42641;59.794;17.616;2023-04-26T13:49:24;0.60;;;0.60;;
56770;SDS011;42641;59.794;17.616;2023-04-26T13:51:52;0.38;;;0.38;;
56770;SDS011;42641;59.794;17.616;2023-04-26T13:54:19;0.50;;;0.50;;
56770;SDS011;42641;59.794;17.616;2023-04-26T13:56:51;2.72;;;0.70;;
56770;SDS011;42641;59.794;17.616;2023-04-26T13:59:18;1.48;;;0.68;;
56770;SDS011;42641;59.794;17.616;2023-04-26T14:01:45;0.40;;;0.40;;
56770;SDS011;42641;59.794;17.616;2023-04-26T14:04:11;0.60;;;0.60;;
56770;SDS011;42641;59.794;17.616;2023-04-26T14:06:38;0.60;;;0.60;;
56770;SDS011;42641;59.794;17.616;2023-04-26T14:09:05;0.57;;;0.57;;
56770;SDS011;42641;59.794;17.616;2023-04-26T14:11:31;0.82;;;0.47;;
56770;SDS011;42641;59.794;17.616;2023-04-26T14:13:58;0.50;;;0.50;;
56770;SDS011;42641;59.794;17.616;2023-04-26T14:16:24;0.50;;;0.50;;
56770;SDS011;42641;59.794;17.616;2023-04-26T14:18:51;0.63;;;0.57;;
56770;SDS011;42641;59.794;17.616;2023-04-26T14:21:18;0.40;;;0.40;;
56770;SDS011;42641;59.794;17.616;2023-04-26T14:23:44;0.50;;;0.50;;
56770;SDS011;42641;59.794;17.616;2023-04-26T14:26:11;2.35;;;0.70;;
56770;SDS011;42641;59.794;17.616;2023-04-26T14:28:38;0.63;;;0.55;;
56770;SDS011;42641;59.794;17.616;2023-04-26T14:31:05;0.57;;;0.57;;
56770;SDS011;42641;59.794;17.616;2023-04-26T14:33:32;1.00;;;0.52;;
56770;SDS011;42641;59.794;17.616;2023-04-26T14:35:59;0.52;;;0.52;;
56770;SDS011;42641;59.794;17.616;2023-04-26T14:38:25;0.50;;;0.50;;
56770;SDS011;42641;59.794;17.616;2023-04-26T14:40:52;0.50;;;0.50;;
56770;SDS011;42641;59.794;17.616;2023-04-26T14:43:18;0.65;;;0.65;;
56770;SDS011;42641;59.794;17.616;2023-04-26T14:45:45;0.93;;;0.68;;
56770;SDS011;42641;59.794;17.616;2023-04-26T14:48:11;1.30;;;0.50;;
56770;SDS011;42641;59.794;17.616;2023-04-26T14:50:37;0.50;;;0.50;;
56770;SDS011;42641;59.794;17.616;2023-04-26T14:53:04;3.80;;;0.80;;
56770;SDS011;42641;59.794;17.616;2023-04-26T14:55:30;1.45;;;0.50;;